Century Venus — 3FXD2 — position and weather

sailwx.info

Track history (hours):
 
Tides and Currents Weather Stations Pressure Air Temp Water Temp Dewpoint Dewpoint Depression Visibility Wind Speed Wind Dir Waves Ship Positions

Century Venus

Last reported at 2016-Dec-11 00:26 UTC. Time now 2016-Dec-11 02:13 UTC.
Position N 27°36' W 082°44'.

Length 137 m; draft 7.4 m.

Type: Ship. MMSI: 357069000.

Date/timePositionNaut miles runAvg speedWind from/ knotsBaromVisibWave heightAir tempDewpointWater temp
2016-Dec-11 00:26N 27°36' W 082°44'9 9.8
2016-Dec-10 23:34N 27°40' W 082°35'1010.2
2016-Dec-10 22:34N 27°48' W 082°28'8 7.5
2016-Dec-10 21:32N 27°56' W 082°26'0 0.0
2016-Dec-10 20:32N 27°56' W 082°26'0 0.0
2016-Dec-10 19:32N 27°56' W 082°26'0 0.0
2016-Dec-10 18:32N 27°56' W 082°26'0 0.0
2016-Dec-10 17:32N 27°56' W 082°26'0 0.0
2016-Dec-10 16:32N 27°56' W 082°26'0 0.0
2016-Dec-10 15:32N 27°56' W 082°26'0 0.0
2016-Dec-10 14:32N 27°56' W 082°26'0 0.0
2016-Dec-10 13:32N 27°56' W 082°26'3 2.8
2016-Dec-10 12:33N 27°53' W 082°26'3 3.0
2016-Dec-10 11:33N 27°51' W 082°23'0 0.1
2016-Dec-10 10:31N 27°51' W 082°24'0 0.0
2016-Dec-10 09:31N 27°51' W 082°24'0 0.0
2016-Dec-10 08:31N 27°51' W 082°24'0 0.0
2016-Dec-10 07:28N 27°51' W 082°24'0 0.0
2016-Dec-10 06:31N 27°51' W 082°24'0 0.0
2016-Dec-10 05:28N 27°51' W 082°24'0 0.0
2016-Dec-10 04:31N 27°51' W 082°24'0 0.0
2016-Dec-10 03:31N 27°51' W 082°24'0 0.0
2016-Dec-10 02:31N 27°51' W 082°24'0 0.0
2016-Dec-10 01:31N 27°51' W 082°24'0 0.0
2016-Dec-10 00:31N 27°51' W 082°24'0 0.0
2016-Dec-09 23:31N 27°51' W 082°24'0 0.0
2016-Dec-09 22:28N 27°51' W 082°24'0 0.0
2016-Dec-09 21:31N 27°51' W 082°24'0 0.0
2016-Dec-09 20:31N 27°51' W 082°24'0 0.0
2016-Dec-09 19:31N 27°51' W 082°24'0 0.0
2016-Dec-09 18:31N 27°51' W 082°24'0 0.0
2016-Dec-09 17:31N 27°51' W 082°24'0 0.0
2016-Dec-09 16:31N 27°51' W 082°24'0 0.0
2016-Dec-09 15:31N 27°51' W 082°24'0 0.0
2016-Dec-09 14:31N 27°51' W 082°24'2 2.5
2016-Dec-09 13:34N 27°51' W 082°26'9 9.2
2016-Dec-09 12:34N 27°43' W 082°32'1010.2
2016-Dec-09 11:33N 27°37' W 082°41'  
2016-Dec-06 23:32N 29°19' W 094°49'0 0.1
2016-Dec-06 22:29N 29°18' W 094°49'0 0.0
2016-Dec-06 21:32N 29°18' W 094°49'0 0.0
2016-Dec-06 20:29N 29°18' W 094°49'0 0.0
2016-Dec-06 18:29N 29°18' W 094°49'0 0.0
2016-Dec-06 16:29N 29°18' W 094°49'0 0.0
2016-Dec-06 15:29N 29°18' W 094°49'0 0.0
2016-Dec-06 14:29N 29°18' W 094°49'  
Track history (hours):
 
Tides and Currents Weather Stations Pressure Air Temp Water Temp Dewpoint Dewpoint Depression Visibility Wind Speed Wind Dir Waves Ship Positions

Century Venus

Last reported at 2016-Dec-11 00:26 UTC. Time now 2016-Dec-11 02:13 UTC.
Position N 27°36' W 082°44'.

Length 137 m; draft 7.4 m.

Type: Ship. MMSI: 357069000.

Date/timePositionNaut miles runAvg speedWind from/ knotsBaromVisibWave heightAir tempDewpointWater temp
2016-Dec-11 00:26N 27°36' W 082°44'9 9.8
2016-Dec-10 23:34N 27°40' W 082°35'1010.2
2016-Dec-10 22:34N 27°48' W 082°28'8 7.5
2016-Dec-10 21:32N 27°56' W 082°26'0 0.0
2016-Dec-10 20:32N 27°56' W 082°26'0 0.0
2016-Dec-10 19:32N 27°56' W 082°26'0 0.0
2016-Dec-10 18:32N 27°56' W 082°26'0 0.0
2016-Dec-10 17:32N 27°56' W 082°26'0 0.0
2016-Dec-10 16:32N 27°56' W 082°26'0 0.0
2016-Dec-10 15:32N 27°56' W 082°26'0 0.0
2016-Dec-10 14:32N 27°56' W 082°26'0 0.0
2016-Dec-10 13:32N 27°56' W 082°26'3 2.8
2016-Dec-10 12:33N 27°53' W 082°26'3 3.0
2016-Dec-10 11:33N 27°51' W 082°23'0 0.1
2016-Dec-10 10:31N 27°51' W 082°24'0 0.0
2016-Dec-10 09:31N 27°51' W 082°24'0 0.0
2016-Dec-10 08:31N 27°51' W 082°24'0 0.0
2016-Dec-10 07:28N 27°51' W 082°24'0 0.0
2016-Dec-10 06:31N 27°51' W 082°24'0 0.0
2016-Dec-10 05:28N 27°51' W 082°24'0 0.0
2016-Dec-10 04:31N 27°51' W 082°24'0 0.0
2016-Dec-10 03:31N 27°51' W 082°24'0 0.0
2016-Dec-10 02:31N 27°51' W 082°24'0 0.0
2016-Dec-10 01:31N 27°51' W 082°24'0 0.0
2016-Dec-10 00:31N 27°51' W 082°24'0 0.0
2016-Dec-09 23:31N 27°51' W 082°24'0 0.0
2016-Dec-09 22:28N 27°51' W 082°24'0 0.0
2016-Dec-09 21:31N 27°51' W 082°24'0 0.0
2016-Dec-09 20:31N 27°51' W 082°24'0 0.0
2016-Dec-09 19:31N 27°51' W 082°24'0 0.0
2016-Dec-09 18:31N 27°51' W 082°24'0 0.0
2016-Dec-09 17:31N 27°51' W 082°24'0 0.0
2016-Dec-09 16:31N 27°51' W 082°24'0 0.0
2016-Dec-09 15:31N 27°51' W 082°24'0 0.0
2016-Dec-09 14:31N 27°51' W 082°24'2 2.5
2016-Dec-09 13:34N 27°51' W 082°26'9 9.2
2016-Dec-09 12:34N 27°43' W 082°32'1010.2
2016-Dec-09 11:33N 27°37' W 082°41'  
2016-Dec-06 23:32N 29°19' W 094°49'0 0.1
2016-Dec-06 22:29N 29°18' W 094°49'0 0.0
2016-Dec-06 21:32N 29°18' W 094°49'0 0.0
2016-Dec-06 20:29N 29°18' W 094°49'0 0.0
2016-Dec-06 18:29N 29°18' W 094°49'0 0.0
2016-Dec-06 16:29N 29°18' W 094°49'0 0.0
2016-Dec-06 15:29N 29°18' W 094°49'0 0.0
2016-Dec-06 14:29N 29°18' W 094°49'  

Dump ship's entire track history